Time;durP1;ratioP1;P1;durP2;ratioP2;P2;SDS_P1;SDS_P2;PMS_P1;PMS_P2;Temp;Humidity;BMP_temperature;BMP_pressure;BME280_temperature;BME280_humidity;BME280_pressure;Samples;Min_cycle;Max_cycle;Signal;HPM_P1;HPM_P2
2022/09/23 00:00:23;;;;;;;6.53;3.50;;;11.20;49.40;;;;;;5055133;28;20466;-73
2022/09/23 00:02:51;;;;;;;3.93;3.20;;;11.10;49.60;;;;;;5055231;28;20389;-73
2022/09/23 00:05:17;;;;;;;7.45;3.38;;;11.20;49.40;;;;;;5055307;28;20469;-72
2022/09/23 00:07:43;;;;;;;5.88;3.30;;;11.10;49.80;;;;;;5055419;28;20391;-74
2022/09/23 00:10:09;;;;;;;7.65;3.83;;;11.10;49.40;;;;;;5054598;28;20716;-73
2022/09/23 00:12:35;;;;;;;6.28;3.30;;;11.10;50.00;;;;;;5054475;28;20914;-73
2022/09/23 00:15:00;;;;;;;4.82;3.20;;;11.10;49.50;;;;;;5054885;28;20479;-73
2022/09/23 00:17:26;;;;;;;6.55;3.40;;;11.10;49.80;;;;;;5055046;28;20471;-74
2022/09/23 00:19:54;;;;;;;4.30;3.20;;;11.10;49.80;;;;;;5055384;28;20419;-73
2022/09/23 00:22:20;;;;;;;9.35;3.50;;;11.10;50.10;;;;;;5053662;28;20369;-73
2022/09/23 00:24:45;;;;;;;7.93;3.60;;;11.00;50.40;;;;;;5056244;28;20382;-74
2022/09/23 00:27:11;;;;;;;4.83;3.17;;;11.00;50.70;;;;;;5054348;28;20754;-74
2022/09/23 00:29:37;;;;;;;7.95;3.40;;;11.00;50.90;;;;;;5054383;28;20400;-74
2022/09/23 00:32:04;;;;;;;6.73;3.73;;;11.00;51.10;;;;;;5054343;28;20454;-74
2022/09/23 00:34:29;;;;;;;5.07;3.83;;;11.00;51.70;;;;;;5055769;28;20373;-74
2022/09/23 00:36:58;;;;;;;4.15;3.13;;;10.90;52.10;;;;;;5054918;28;20470;-74
2022/09/23 00:39:25;;;;;;;3.80;3.40;;;10.90;52.80;;;;;;5054297;28;20456;-74
2022/09/23 00:41:51;;;;;;;8.73;4.13;;;10.80;53.00;;;;;;5039016;28;20797;-74
2022/09/23 00:44:46;;;;;;;7.20;3.40;;;10.70;54.00;;;;;;5057817;28;20469;-73
2022/09/23 00:47:20;;;;;;;5.55;3.67;;;10.70;54.20;;;;;;5057931;28;20389;-74
2022/09/23 00:49:52;;;;;;;6.03;3.80;;;10.70;54.50;;;;;;5057349;28;20396;-73
2022/09/23 00:52:22;;;;;;;6.82;4.05;;;10.70;55.00;;;;;;5057455;28;20858;-75
2022/09/23 00:54:51;;;;;;;6.50;3.58;;;10.60;56.00;;;;;;5057682;28;20974;-74
2022/09/23 00:57:18;;;;;;;6.35;4.00;;;10.60;56.10;;;;;;5057891;28;20940;-74
2022/09/23 00:59:45;;;;;;;5.85;3.60;;;10.60;55.90;;;;;;5055893;28;20934;-73
2022/09/23 01:02:12;;;;;;;7.75;3.72;;;10.70;56.50;;;;;;5056201;28;20389;-73
2022/09/23 01:04:38;;;;;;;5.87;3.50;;;10.70;56.10;;;;;;5057772;28;20807;-74
2022/09/23 01:07:04;;;;;;;5.63;3.45;;;10.60;56.30;;;;;;5058745;28;20385;-75
2022/09/23 01:09:30;;;;;;;8.10;4.07;;;10.60;56.50;;;;;;5058016;28;20810;-75
2022/09/23 01:12:17;;;;;;;6.90;3.55;;;10.60;56.60;;;;;;5056260;28;21054;-75
2022/09/23 01:15:20;;;;;;;5.77;3.90;;;10.70;56.10;;;;;;5055346;28;20414;-73
2022/09/23 01:18:16;;;;;;;6.28;3.63;;;10.60;56.40;;;;;;5055062;28;20404;-74
2022/09/23 01:20:50;;;;;;;6.88;3.80;;;10.60;57.10;;;;;;5055337;28;20377;-73
2022/09/23 01:23:54;;;;;;;5.78;3.80;;;10.60;56.70;;;;;;5054828;28;20385;-72
2022/09/23 01:26:42;;;;;;;7.88;3.80;;;10.50;57.00;;;;;;5054795;28;20421;-74
2022/09/23 01:29:41;;;;;;;5.00;3.50;;;10.60;56.90;;;;;;5054478;28;20450;-73
2022/09/23 01:32:07;;;;;;;7.00;3.63;;;10.50;57.40;;;;;;5054315;28;20432;-73
2022/09/23 01:34:41;;;;;;;5.90;3.97;;;10.60;57.20;;;;;;5054341;28;20782;-74
2022/09/23 01:37:17;;;;;;;8.60;3.57;;;10.60;57.20;;;;;;5054538;28;20411;-73
2022/09/23 01:40:16;;;;;;;6.45;3.95;;;10.50;57.40;;;;;;5056039;28;20389;-73
2022/09/23 01:42:51;;;;;;;5.20;3.72;;;10.50;57.00;;;;;;5056956;28;20382;-73
2022/09/23 01:45:27;;;;;;;5.97;3.90;;;10.50;57.80;;;;;;5057643;28;20670;-73
2022/09/23 01:47:58;;;;;;;4.82;3.78;;;10.50;58.20;;;;;;5057366;28;20445;-73
2022/09/23 01:53:27;;;;;;;6.50;3.72;;;10.40;59.00;;;;;;5057739;28;20936;-73
2022/09/23 01:55:57;;;;;;;5.80;3.70;;;10.50;58.60;;;;;;5058253;28;20381;-73
2022/09/23 01:58:36;;;;;;;5.85;3.97;;;10.40;58.50;;;;;;5058234;28;20416;-74
2022/09/23 02:01:06;;;;;;;6.57;3.50;;;10.50;58.70;;;;;;5056986;28;20396;-74
2022/09/23 02:03:37;;;;;;;5.93;3.83;;;10.50;58.30;;;;;;5057172;28;20397;-74
2022/09/23 02:06:19;;;;;;;8.70;3.90;;;10.50;58.40;;;;;;5057888;28;20377;-75
2022/09/23 02:08:56;;;;;;;6.50;3.95;;;10.40;58.60;;;;;;5057734;28;20376;-74
2022/09/23 02:11:22;;;;;;;8.20;3.90;;;10.40;58.40;;;;;;5057575;28;20385;-73
2022/09/23 02:13:55;;;;;;;8.02;3.95;;;10.40;58.70;;;;;;5057411;28;20438;-73
2022/09/23 02:16:47;;;;;;;4.85;3.78;;;10.40;59.60;;;;;;5057624;28;20465;-73
2022/09/23 02:19:20;;;;;;;5.82;3.92;;;10.30;59.50;;;;;;5056158;28;20378;-73
2022/09/23 02:22:00;;;;;;;5.47;4.07;;;10.40;59.50;;;;;;5056599;28;20409;-72
2022/09/23 02:24:32;;;;;;;6.13;3.83;;;10.30;59.80;;;;;;5057217;28;20398;-73
2022/09/23 02:27:04;;;;;;;6.93;3.38;;;10.30;59.80;;;;;;5057585;28;20393;-73
2022/09/23 02:29:38;;;;;;;6.80;4.40;;;10.30;59.90;;;;;;5057814;28;20846;-73
2022/09/23 02:32:16;;;;;;;6.30;3.75;;;10.30;60.10;;;;;;5056835;28;20393;-73
2022/09/23 02:34:45;;;;;;;7.43;3.50;;;10.30;60.00;;;;;;5056209;28;20393;-73
2022/09/23 02:37:31;;;;;;;8.10;4.25;;;10.30;59.60;;;;;;5056053;28;20409;-74
2022/09/23 02:40:24;;;;;;;6.75;4.40;;;10.30;59.90;;;;;;5056383;28;20392;-73
2022/09/23 02:43:11;;;;;;;8.23;3.80;;;10.30;59.80;;;;;;5055721;28;20736;-73
2022/09/23 02:45:37;;;;;;;4.97;2.95;;;10.40;59.20;;;;;;5056055;28;20397;-73
2022/09/23 02:48:17;;;;;;;4.30;3.30;;;10.40;58.00;;;;;;5056117;28;20406;-73
2022/09/23 02:50:43;;;;;;;5.85;3.80;;;10.40;58.10;;;;;;5056811;28;20511;-73
2022/09/23 02:53:09;;;;;;;6.13;3.70;;;10.40;58.40;;;;;;5057099;28;20833;-74
2022/09/23 02:55:35;;;;;;;4.82;3.50;;;10.40;58.30;;;;;;5046672;28;20435;-72
2022/09/23 02:58:04;;;;;;;5.00;3.60;;;10.30;58.60;;;;;;5055362;28;20436;-73
2022/09/23 03:00:58;;;;;;;3.50;3.20;;;10.30;58.90;;;;;;5057682;28;20389;-74
2022/09/23 03:03:48;;;;;;;4.90;3.63;;;10.30;59.20;;;;;;5052842;28;20401;-73
2022/09/23 03:06:27;;;;;;;5.20;3.10;;;10.30;59.40;;;;;;5052819;28;20378;-73
2022/09/23 03:09:00;;;;;;;4.63;3.10;;;10.30;58.90;;;;;;5052684;28;20870;-75
2022/09/23 03:11:25;;;;;;;6.32;3.50;;;10.20;58.80;;;;;;5052299;28;20874;-72
2022/09/23 03:14:16;;;;;;;5.80;3.60;;;10.20;59.20;;;;;;5048949;28;20402;-72
2022/09/23 03:16:54;;;;;;;8.50;4.20;;;10.20;59.50;;;;;;5034818;28;20391;-72
2022/09/23 03:19:41;;;;;;;6.93;3.97;;;10.10;60.70;;;;;;5037857;28;20428;-71
2022/09/23 03:22:43;;;;;;;8.88;4.60;;;10.10;61.40;;;;;;5052467;28;20753;-73
2022/09/23 03:25:16;;;;;;;6.38;4.80;;;10.00;63.50;;;;;;5042271;28;20407;-73
2022/09/23 03:27:44;;;;;;;6.53;4.20;;;9.90;64.90;;;;;;5042505;28;20900;-74
2022/09/23 03:30:11;;;;;;;5.78;4.15;;;9.90;65.50;;;;;;5042915;28;20774;-73
2022/09/23 03:32:40;;;;;;;9.60;4.45;;;9.90;65.70;;;;;;5052217;28;20381;-73
2022/09/23 03:35:06;;;;;;;6.75;4.10;;;9.90;66.70;;;;;;5052413;28;20381;-73
2022/09/23 03:37:38;;;;;;;5.67;4.17;;;9.90;67.10;;;;;;5034595;28;20405;-73
2022/09/23 03:40:24;;;;;;;7.53;4.45;;;9.80;67.60;;;;;;5052592;28;20392;-74
2022/09/23 03:42:50;;;;;;;7.07;4.53;;;9.80;68.10;;;;;;5052730;28;20889;-73
2022/09/23 03:45:25;;;;;;;5.80;4.43;;;9.80;69.20;;;;;;5052340;28;20389;-73
2022/09/23 03:47:50;;;;;;;7.63;4.30;;;9.80;70.20;;;;;;5052443;28;20480;-73
2022/09/23 03:50:17;;;;;;;10.50;4.50;;;9.80;70.80;;;;;;5055325;28;20443;-73
2022/09/23 03:52:43;;;;;;;7.60;4.20;;;9.80;70.40;;;;;;5037492;28;20401;-73
2022/09/23 03:55:09;;;;;;;7.80;4.30;;;9.80;70.60;;;;;;5052495;28;20386;-73
2022/09/23 03:57:36;;;;;;;7.45;4.60;;;9.80;71.10;;;;;;5053247;28;20496;-73
2022/09/23 04:00:03;;;;;;;6.15;4.45;;;9.80;71.50;;;;;;5052212;28;20384;-74
2022/09/23 04:02:32;;;;;;;8.27;4.85;;;9.80;72.70;;;;;;5057662;28;20374;-76
2022/09/23 04:04:58;;;;;;;8.10;4.43;;;9.80;73.50;;;;;;5057175;28;20388;-74
2022/09/23 04:07:24;;;;;;;8.50;4.37;;;9.70;73.00;;;;;;5057229;28;20480;-73
2022/09/23 04:09:50;;;;;;;6.15;4.53;;;9.70;74.10;;;;;;5052155;28;20437;-73
2022/09/23 04:12:16;;;;;;;8.57;4.38;;;9.70;75.10;;;;;;5051348;28;20397;-73
2022/09/23 04:14:42;;;;;;;6.80;5.50;;;9.70;74.20;;;;;;5051703;28;20447;-73
2022/09/23 04:17:08;;;;;;;9.38;5.50;;;9.70;75.50;;;;;;5052473;28;20405;-73
2022/09/23 04:19:33;;;;;;;8.85;5.10;;;9.70;75.80;;;;;;5053216;28;20722;-73
2022/09/23 04:21:59;;;;;;;8.50;5.07;;;9.80;75.00;;;;;;5052336;28;20394;-72
2022/09/23 04:24:25;;;;;;;8.30;5.10;;;9.70;75.00;;;;;;5053513;28;20432;-73
2022/09/23 04:26:55;;;;;;;10.70;5.57;;;9.70;75.90;;;;;;5053011;28;20382;-72
2022/09/23 04:29:22;;;;;;;7.20;5.00;;;9.70;76.00;;;;;;5051839;28;20469;-72
2022/09/23 04:31:48;;;;;;;6.70;5.03;;;9.70;76.80;;;;;;5051281;28;20381;-72
2022/09/23 04:34:17;;;;;;;15.30;5.67;;;9.70;77.20;;;;;;5051421;28;20451;-71
2022/09/23 04:36:46;;;;;;;10.37;4.80;;;9.70;76.70;;;;;;5051435;28;20882;-73
2022/09/23 04:39:13;;;;;;;7.15;5.20;;;9.70;76.70;;;;;;5051053;28;20389;-73
2022/09/23 04:41:39;;;;;;;8.65;5.00;;;9.70;77.90;;;;;;5049660;28;20481;-73
2022/09/23 04:44:05;;;;;;;7.68;4.68;;;9.60;78.10;;;;;;5050849;28;20476;-73
2022/09/23 04:46:30;;;;;;;9.83;4.70;;;9.60;78.30;;;;;;5051080;28;20390;-73
2022/09/23 04:48:56;;;;;;;5.80;4.40;;;9.60;78.70;;;;;;5051086;28;20435;-73
2022/09/23 04:51:24;;;;;;;7.20;5.40;;;9.50;78.40;;;;;;5051311;28;20377;-73
2022/09/23 04:53:51;;;;;;;5.78;4.60;;;9.60;78.10;;;;;;5051747;28;20461;-74
2022/09/23 04:56:25;;;;;;;5.13;4.50;;;9.60;77.00;;;;;;5052919;28;20392;-74
2022/09/23 04:58:51;;;;;;;7.95;4.90;;;9.60;77.50;;;;;;5052924;28;20917;-73
2022/09/23 05:01:18;;;;;;;6.93;4.80;;;9.50;76.50;;;;;;5051698;28;20442;-73
2022/09/23 05:03:45;;;;;;;6.55;4.30;;;9.50;76.00;;;;;;5050933;28;20397;-73
2022/09/23 05:06:13;;;;;;;5.80;4.70;;;9.50;76.10;;;;;;5050802;28;20385;-73
2022/09/23 05:08:39;;;;;;;6.95;5.00;;;9.50;76.50;;;;;;5050698;28;20381;-73
2022/09/23 05:11:05;;;;;;;9.48;5.30;;;9.50;76.40;;;;;;5050852;28;20464;-73
2022/09/23 05:13:32;;;;;;;8.93;4.70;;;9.50;75.80;;;;;;5051256;28;20984;-72
2022/09/23 05:16:10;;;;;;;7.93;4.85;;;9.50;73.90;;;;;;5050717;28;20393;-73
2022/09/23 05:18:39;;;;;;;11.95;5.30;;;9.50;73.70;;;;;;5050669;28;20440;-73
2022/09/23 05:21:06;;;;;;;7.60;4.50;;;9.50;73.80;;;;;;5032633;28;20385;-73
2022/09/23 05:23:32;;;;;;;7.97;4.50;;;9.50;73.90;;;;;;5050610;28;20426;-72
2022/09/23 05:26:02;;;;;;;7.53;4.93;;;9.50;73.80;;;;;;5050345;28;20511;-73
2022/09/23 05:28:31;;;;;;;7.90;5.22;;;9.50;73.80;;;;;;5050814;28;20381;-73
2022/09/23 05:31:07;;;;;;;6.30;4.55;;;9.50;73.70;;;;;;5050590;28;20507;-72
2022/09/23 05:33:35;;;;;;;9.00;4.75;;;9.50;73.60;;;;;;5050822;28;20412;-72
2022/09/23 05:36:02;;;;;;;6.78;4.80;;;9.50;72.60;;;;;;5050292;28;20392;-73
2022/09/23 05:38:28;;;;;;;6.25;4.28;;;9.50;72.40;;;;;;5050651;28;20427;-73
2022/09/23 05:40:58;;;;;;;10.07;5.20;;;9.50;72.40;;;;;;5050444;28;20393;-73
2022/09/23 05:43:24;;;;;;;8.87;4.83;;;9.50;72.20;;;;;;5050103;28;20421;-73
2022/09/23 05:45:50;;;;;;;10.38;4.80;;;9.50;71.80;;;;;;5050317;28;20477;-72
2022/09/23 05:48:16;;;;;;;5.77;5.10;;;9.60;71.30;;;;;;5050297;28;20443;-73
2022/09/23 05:50:49;;;;;;;9.82;6.50;;;9.60;71.60;;;;;;5050543;28;20758;-73
2022/09/23 05:53:15;;;;;;;12.73;6.55;;;9.70;70.00;;;;;;5050315;28;20890;-73
2022/09/23 05:55:40;;;;;;;15.27;6.80;;;9.80;68.30;;;;;;5032813;28;20392;-74
2022/09/23 05:58:06;;;;;;;7.75;5.72;;;9.80;67.50;;;;;;5050222;28;20499;-73
2022/09/23 06:00:31;;;;;;;10.93;6.70;;;9.80;67.70;;;;;;5050484;28;20405;-72
2022/09/23 06:02:57;;;;;;;15.33;10.10;;;9.90;67.50;;;;;;5050312;28;20390;-74
2022/09/23 06:05:22;;;;;;;14.03;8.00;;;10.00;66.00;;;;;;5051372;28;21179;-74
2022/09/23 06:07:48;;;;;;;11.20;6.50;;;10.10;64.40;;;;;;5051780;28;20924;-73
2022/09/23 06:10:13;;;;;;;8.70;6.20;;;10.30;62.70;;;;;;5052776;28;20530;-73
2022/09/23 06:12:41;;;;;;;12.27;6.65;;;10.40;62.60;;;;;;5051543;28;20425;-75
2022/09/23 06:15:07;;;;;;;11.05;5.75;;;10.40;61.10;;;;;;5034476;28;20474;-73
2022/09/23 06:17:32;;;;;;;14.02;5.75;;;10.50;59.50;;;;;;5051253;28;20933;-73
2022/09/23 06:19:58;;;;;;;8.82;5.40;;;10.70;59.10;;;;;;5051163;28;20439;-74
2022/09/23 06:22:24;;;;;;;8.50;6.00;;;10.80;57.60;;;;;;5051141;28;20496;-72
2022/09/23 06:24:49;;;;;;;8.93;5.70;;;11.00;56.30;;;;;;5054350;28;20408;-73
2022/09/23 06:27:15;;;;;;;11.50;5.13;;;11.00;55.60;;;;;;5055257;28;20392;-73
2022/09/23 06:29:40;;;;;;;10.27;6.70;;;11.10;54.50;;;;;;5054756;28;20388;-74
2022/09/23 06:32:06;;;;;;;10.83;6.40;;;11.20;53.30;;;;;;5053421;28;20380;-73
2022/09/23 06:34:31;;;;;;;8.13;5.43;;;11.40;52.60;;;;;;5053808;28;20702;-73
2022/09/23 06:36:57;;;;;;;11.83;6.07;;;11.50;52.20;;;;;;5053837;28;20690;-73
2022/09/23 06:39:23;;;;;;;11.35;5.78;;;11.60;50.90;;;;;;5053516;28;20385;-73
2022/09/23 06:41:48;;;;;;;9.00;5.20;;;11.80;49.40;;;;;;5053358;28;20389;-74
2022/09/23 06:44:14;;;;;;;11.75;5.80;;;12.00;48.90;;;;;;5053679;28;20381;-74
2022/09/23 06:46:39;;;;;;;9.73;5.57;;;12.00;47.40;;;;;;5054098;28;20413;-74
2022/09/23 06:49:05;;;;;;;8.47;5.13;;;12.10;46.90;;;;;;5054075;28;20412;-73
2022/09/23 06:51:31;;;;;;;6.80;4.97;;;12.20;45.90;;;;;;5053721;28;20389;-73
2022/09/23 06:53:56;;;;;;;10.30;5.80;;;12.40;44.90;;;;;;5054519;28;20381;-74
2022/09/23 06:56:22;;;;;;;11.63;6.10;;;12.50;44.20;;;;;;5054935;28;20746;-74
2022/09/23 06:58:51;;;;;;;10.90;5.40;;;12.50;43.80;;;;;;5054770;28;20909;-74
2022/09/23 07:01:17;;;;;;;8.52;5.85;;;12.60;43.40;;;;;;5053226;28;20634;-73
2022/09/23 07:03:43;;;;;;;10.18;5.40;;;12.70;42.60;;;;;;5054015;28;20417;-74
2022/09/23 07:06:10;;;;;;;8.48;5.70;;;12.90;42.00;;;;;;5054729;28;20401;-74
2022/09/23 07:08:36;;;;;;;5.55;4.40;;;13.00;40.90;;;;;;5053038;28;20442;-74
2022/09/23 07:11:04;;;;;;;8.20;5.70;;;13.20;39.30;;;;;;5053196;28;20901;-74
2022/09/23 07:13:32;;;;;;;14.10;6.07;;;13.20;38.20;;;;;;5053308;28;20397;-72
2022/09/23 07:15:59;;;;;;;9.27;5.70;;;13.20;38.30;;;;;;5052745;28;20464;-74
2022/09/23 07:18:25;;;;;;;9.57;5.40;;;13.30;37.60;;;;;;5053068;28;20474;-73
2022/09/23 07:20:52;;;;;;;9.53;5.17;;;13.40;37.30;;;;;;5052993;28;20594;-73
2022/09/23 07:23:18;;;;;;;10.03;5.20;;;13.40;37.00;;;;;;5053059;28;20393;-73
2022/09/23 07:25:49;;;;;;;9.20;5.67;;;13.70;37.10;;;;;;5053123;28;20377;-73
2022/09/23 07:28:14;;;;;;;9.13;4.93;;;13.70;36.50;;;;;;5053337;28;20746;-73
2022/09/23 07:30:40;;;;;;;12.60;5.67;;;13.70;36.10;;;;;;5053084;28;20389;-73
2022/09/23 07:33:06;;;;;;;7.97;5.30;;;13.90;36.30;;;;;;5053443;28;20388;-75
2022/09/23 07:35:32;;;;;;;9.38;5.80;;;14.00;35.50;;;;;;5052500;28;20385;-73
2022/09/23 07:37:58;;;;;;;8.75;4.80;;;14.00;36.00;;;;;;5053052;28;20397;-73
2022/09/23 07:40:24;;;;;;;8.60;5.00;;;14.10;34.50;;;;;;5052994;28;20432;-73
2022/09/23 07:42:50;;;;;;;7.00;5.10;;;14.00;34.50;;;;;;5052333;28;20377;-73
2022/09/23 07:45:16;;;;;;;9.32;5.00;;;14.00;35.00;;;;;;5052971;28;20381;-73
2022/09/23 07:47:41;;;;;;;7.20;5.10;;;14.10;34.20;;;;;;5052714;28;20464;-72
2022/09/23 07:50:11;;;;;;;6.70;5.20;;;14.30;34.70;;;;;;5052691;28;20390;-72
2022/09/23 07:52:38;;;;;;;9.93;5.40;;;14.50;33.50;;;;;;5052983;28;20389;-74
2022/09/23 07:55:04;;;;;;;7.25;4.93;;;14.50;33.50;;;;;;5055496;28;20416;-73
2022/09/23 07:57:30;;;;;;;13.27;5.20;;;14.60;32.80;;;;;;5052961;28;20914;-73
2022/09/23 07:59:56;;;;;;;6.63;4.40;;;14.60;33.20;;;;;;5034463;28;20393;-73
2022/09/23 08:02:21;;;;;;;8.82;4.40;;;14.70;32.20;;;;;;5051969;28;20385;-73
2022/09/23 08:04:47;;;;;;;13.17;5.10;;;14.70;32.10;;;;;;5052195;28;20475;-74
2022/09/23 08:07:13;;;;;;;11.10;5.60;;;14.80;31.80;;;;;;5051985;28;20758;-73
2022/09/23 08:09:41;;;;;;;8.15;5.30;;;14.90;32.20;;;;;;5051549;28;20388;-73
2022/09/23 08:12:11;;;;;;;6.90;4.70;;;15.10;31.90;;;;;;5051925;28;20465;-73
2022/09/23 08:14:37;;;;;;;7.67;5.27;;;15.20;30.70;;;;;;5052561;28;20829;-73
2022/09/23 08:17:03;;;;;;;11.37;5.10;;;15.10;30.80;;;;;;5052248;28;20516;-73
2022/09/23 08:19:29;;;;;;;13.80;5.35;;;15.20;30.60;;;;;;5052399;28;20893;-72
2022/09/23 08:21:56;;;;;;;9.40;5.10;;;15.30;30.70;;;;;;5051733;28;20381;-72
2022/09/23 08:24:23;;;;;;;8.52;5.22;;;15.50;30.00;;;;;;5051925;28;20392;-73
2022/09/23 08:26:52;;;;;;;8.15;5.20;;;15.60;29.90;;;;;;5051730;28;20389;-74
2022/09/23 08:29:19;;;;;;;7.57;5.00;;;15.80;29.60;;;;;;5051621;28;20381;-74
2022/09/23 08:31:45;;;;;;;11.07;4.60;;;15.90;28.50;;;;;;5051518;28;20385;-74
2022/09/23 08:34:12;;;;;;;10.77;5.40;;;16.00;28.20;;;;;;5051507;28;20385;-74
2022/09/23 08:36:37;;;;;;;9.20;4.78;;;16.20;27.40;;;;;;5051583;28;20472;-74
2022/09/23 08:39:04;;;;;;;10.00;5.03;;;16.40;27.40;;;;;;5051609;28;20468;-72
2022/09/23 08:41:52;;;;;;;9.45;4.80;;;16.30;27.10;;;;;;5051749;28;20389;-74
2022/09/23 08:44:31;;;;;;;13.17;4.67;;;16.40;26.10;;;;;;5052094;28;20789;-74
2022/09/23 08:47:22;;;;;;;12.65;5.18;;;16.40;25.90;;;;;;5051370;28;20381;-75
2022/09/23 08:49:57;;;;;;;6.30;4.50;;;16.50;26.70;;;;;;5052173;28;20431;-74
2022/09/23 08:52:31;;;;;;;7.03;4.30;;;16.50;25.80;;;;;;5051421;28;20436;-75
2022/09/23 08:54:57;;;;;;;8.30;4.50;;;16.50;26.30;;;;;;5052034;28;20740;-74
2022/09/23 08:57:44;;;;;;;7.28;4.53;;;16.50;26.70;;;;;;5052266;28;20835;-74
2022/09/23 09:00:20;;;;;;;7.63;4.78;;;16.40;26.50;;;;;;5052657;28;20754;-73
2022/09/23 09:02:47;;;;;;;7.22;4.28;;;16.30;27.10;;;;;;5052090;28;20408;-73
2022/09/23 09:05:18;;;;;;;9.98;5.10;;;16.40;27.00;;;;;;5033955;28;20386;-73
2022/09/23 09:07:44;;;;;;;9.60;4.80;;;16.40;27.20;;;;;;5051127;28;20807;-73
2022/09/23 09:10:28;;;;;;;9.70;6.10;;;16.30;26.90;;;;;;5051287;28;20468;-75
2022/09/23 09:13:06;;;;;;;6.30;5.20;;;16.30;26.80;;;;;;5050387;28;20883;-73
2022/09/23 09:15:48;;;;;;;7.55;4.50;;;16.30;26.60;;;;;;5050272;28;21149;-74
2022/09/23 09:18:20;;;;;;;7.25;4.13;;;16.40;26.40;;;;;;5050023;28;20437;-73
2022/09/23 09:21:10;;;;;;;6.80;4.50;;;16.60;26.80;;;;;;5050023;28;20373;-73
2022/09/23 09:23:58;;;;;;;9.15;5.30;;;16.60;26.60;;;;;;5050366;28;20377;-74
2022/09/23 09:26:31;;;;;;;10.20;5.18;;;16.80;26.50;;;;;;5049920;28;20745;-73
2022/09/23 09:29:00;;;;;;;11.97;5.80;;;17.00;26.30;;;;;;5050295;28;20397;-73
2022/09/23 09:31:34;;;;;;;10.45;4.75;;;17.20;24.80;;;;;;5050550;28;20455;-74
2022/09/23 09:34:25;;;;;;;7.80;5.00;;;17.40;24.60;;;;;;5050314;28;20739;-74
2022/09/23 09:37:05;;;;;;;12.93;6.33;;;17.60;23.50;;;;;;5050738;28;20381;-74
2022/09/23 09:39:30;;;;;;;13.23;6.23;;;17.70;23.80;;;;;;5050770;28;20792;-73
2022/09/23 09:41:58;;;;;;;12.93;5.13;;;17.90;23.30;;;;;;5050355;28;20492;-73
2022/09/23 09:44:40;;;;;;;8.63;5.60;;;18.00;21.70;;;;;;5050911;28;20381;-73
2022/09/23 09:47:27;;;;;;;27.42;7.63;;;18.10;21.20;;;;;;5051197;28;20524;-73
2022/09/23 09:50:02;;;;;;;12.05;5.50;;;18.30;21.00;;;;;;5050598;28;20863;-72
2022/09/23 09:52:28;;;;;;;8.70;4.68;;;18.30;21.00;;;;;;5032774;28;20385;-72
2022/09/23 09:55:27;;;;;;;8.30;5.03;;;18.20;21.10;;;;;;5051597;28;20478;-75
2022/09/23 09:58:04;;;;;;;8.57;5.35;;;18.20;20.30;;;;;;5050893;28;20445;-73
2022/09/23 10:00:29;;;;;;;9.35;5.10;;;18.20;20.10;;;;;;5054598;28;20390;-73
2022/09/23 10:03:12;;;;;;;7.78;4.88;;;18.30;20.70;;;;;;5054675;28;20389;-72
2022/09/23 10:05:44;;;;;;;7.15;4.70;;;18.40;20.00;;;;;;5054393;28;20384;-72
2022/09/23 10:08:21;;;;;;;9.03;5.20;;;18.50;19.60;;;;;;5054254;28;20837;-75
2022/09/23 10:10:53;;;;;;;8.53;5.20;;;18.60;18.90;;;;;;5054232;28;20385;-73
2022/09/23 10:13:22;;;;;;;8.15;4.95;;;18.70;19.00;;;;;;5053875;28;20715;-74
2022/09/23 10:15:49;;;;;;;7.32;4.38;;;18.90;18.10;;;;;;5053758;28;20419;-73
2022/09/23 10:18:19;;;;;;;11.60;5.50;;;19.00;18.20;;;;;;5054083;28;20405;-74
2022/09/23 10:20:45;;;;;;;8.40;4.20;;;19.30;17.60;;;;;;5054733;28;20378;-74
2022/09/23 10:23:19;;;;;;;6.55;4.10;;;19.40;17.40;;;;;;5054851;28;20401;-73
2022/09/23 10:25:59;;;;;;;10.55;4.40;;;19.40;16.90;;;;;;5055786;28;20408;-74
2022/09/23 10:28:45;;;;;;;10.02;4.50;;;19.60;16.50;;;;;;5056644;28;20765;-73
2022/09/23 10:31:23;;;;;;;8.77;4.33;;;19.60;16.80;;;;;;5037339;28;20428;-73
2022/09/23 10:33:51;;;;;;;10.95;4.82;;;19.50;16.20;;;;;;5055541;28;20485;-72
2022/09/23 10:36:17;;;;;;;6.60;4.40;;;19.50;15.50;;;;;;5055580;28;20445;-72
2022/09/23 10:38:43;;;;;;;8.02;4.07;;;19.50;15.80;;;;;;5063703;28;20401;-73
2022/09/23 10:47:15;;;;;;;8.98;4.88;;;19.60;14.20;;;;;;5054035;28;20746;-73
2022/09/23 10:49:55;;;;;;;8.20;4.40;;;19.80;14.80;;;;;;5053179;28;20377;-72
2022/09/23 10:52:37;;;;;;;7.72;4.25;;;19.70;15.20;;;;;;5053095;28;20381;-74
2022/09/23 10:55:28;;;;;;;9.75;4.68;;;20.00;15.00;;;;;;5035892;28;20409;-74
2022/09/23 10:58:13;;;;;;;8.18;5.13;;;20.20;14.50;;;;;;5054214;28;20407;-74
2022/09/23 11:00:56;;;;;;;10.87;5.00;;;20.10;14.50;;;;;;5053705;28;20936;-73
2022/09/23 11:03:44;;;;;;;8.98;4.38;;;20.20;14.10;;;;;;5053446;28;20385;-73
2022/09/23 11:06:19;;;;;;;10.70;4.90;;;20.00;14.00;;;;;;5053172;28;20382;-74
2022/09/23 11:09:01;;;;;;;11.88;4.88;;;20.00;14.10;;;;;;5052945;28;20385;-73
2022/09/23 11:11:42;;;;;;;8.55;4.35;;;20.10;14.30;;;;;;5053030;28;20381;-74
2022/09/23 11:14:15;;;;;;;9.50;4.95;;;20.00;14.20;;;;;;5053501;28;20395;-73
2022/09/23 11:17:13;;;;;;;10.88;4.70;;;20.00;14.10;;;;;;5035284;28;20407;-74
2022/09/23 11:20:12;;;;;;;7.00;4.60;;;20.10;13.90;;;;;;5053838;28;20385;-73
2022/09/23 11:22:53;;;;;;;10.05;5.18;;;20.20;14.10;;;;;;5053543;28;20382;-73
2022/09/23 11:25:46;;;;;;;7.47;4.90;;;20.20;14.00;;;;;;5054550;28;20385;-74
2022/09/23 11:28:42;;;;;;;9.90;5.43;;;20.40;13.80;;;;;;5054042;28;20397;-73
2022/09/23 11:31:23;;;;;;;10.05;5.28;;;20.60;13.40;;;;;;5052313;28;20392;-72
2022/09/23 11:33:51;;;;;;;10.50;5.60;;;20.50;13.70;;;;;;5053797;28;20735;-74
2022/09/23 11:36:43;;;;;;;8.55;4.80;;;20.50;13.40;;;;;;5056347;28;20382;-73
2022/09/23 11:39:16;;;;;;;5.00;4.50;;;21.00;12.90;;;;;;5052314;28;20488;-72
2022/09/23 11:41:43;;;;;;;8.40;5.10;;;21.00;13.00;;;;;;5052306;28;20370;-73
2022/09/23 11:44:18;;;;;;;7.40;5.00;;;21.00;12.80;;;;;;5052691;28;20477;-73
2022/09/23 11:46:54;;;;;;;10.60;5.20;;;20.90;12.70;;;;;;5052748;28;20695;-74
2022/09/23 11:50:00;;;;;;;9.30;5.60;;;21.00;13.00;;;;;;5034970;28;20409;-72
2022/09/23 11:52:40;;;;;;;11.55;4.75;;;21.30;12.90;;;;;;5051842;28;20429;-73
2022/09/23 11:55:17;;;;;;;7.53;4.20;;;21.50;11.80;;;;;;5052172;28;20456;-73
2022/09/23 11:57:57;;;;;;;8.80;4.07;;;21.50;11.40;;;;;;5052581;28;20813;-73
2022/09/23 12:00:34;;;;;;;10.15;3.90;;;21.40;11.00;;;;;;5052763;28;20377;-73
2022/09/23 12:03:30;;;;;;;5.10;3.50;;;21.50;11.50;;;;;;5052075;28;20397;-73
2022/09/23 12:05:57;;;;;;;7.82;3.53;;;21.60;10.10;;;;;;5053681;28;20421;-73
2022/09/23 12:08:31;;;;;;;7.03;3.35;;;21.80;10.50;;;;;;5035123;28;20730;-74
2022/09/23 12:11:17;;;;;;;8.65;4.10;;;22.20;10.20;;;;;;5051838;28;20445;-72
2022/09/23 12:14:13;;;;;;;10.30;4.20;;;22.20;9.50;;;;;;5060184;28;20385;-73
2022/09/23 12:17:20;;;;;;;8.45;3.63;;;22.20;9.50;;;;;;5041967;28;20440;-73
2022/09/23 12:20:00;;;;;;;6.53;3.80;;;22.10;9.90;;;;;;4995206;28;20401;-73
2022/09/23 12:22:53;;;;;;;9.57;3.63;;;22.30;9.50;;;;;;5047937;28;20461;-73
2022/09/23 12:26:00;;;;;;;7.63;3.30;;;22.00;10.20;;;;;;5050974;28;20943;-73
2022/09/23 12:28:40;;;;;;;10.30;4.10;;;21.90;10.50;;;;;;5053978;28;20393;-73
2022/09/23 12:31:31;;;;;;;9.33;4.10;;;21.80;10.60;;;;;;5053459;28;20378;-73
2022/09/23 12:33:59;;;;;;;4.30;3.30;;;21.80;10.80;;;;;;5062811;28;20473;-74
2022/09/23 12:36:33;;;;;;;8.48;4.00;;;21.60;11.20;;;;;;5065891;28;20395;-72
2022/09/23 12:39:37;;;;;;;9.03;3.90;;;21.60;11.30;;;;;;5067653;28;20396;-73
2022/09/23 12:42:09;;;;;;;9.65;4.03;;;21.40;10.70;;;;;;5001863;28;20399;-73
2022/09/23 12:44:41;;;;;;;12.45;3.90;;;21.40;11.50;;;;;;5044782;28;20386;-73
2022/09/23 12:47:24;;;;;;;11.43;4.22;;;21.30;11.90;;;;;;5051411;28;20411;-74
2022/09/23 12:49:55;;;;;;;8.35;3.75;;;21.30;12.20;;;;;;5051795;28;20842;-72
2022/09/23 12:52:26;;;;;;;6.22;4.10;;;21.20;11.90;;;;;;5050499;28;20403;-73
2022/09/23 12:55:25;;;;;;;4.38;3.40;;;21.30;12.10;;;;;;5051345;28;20390;-72
2022/09/23 12:57:50;;;;;;;8.35;4.00;;;21.30;11.50;;;;;;5025176;28;20402;-73
2022/09/23 13:00:19;;;;;;;6.25;3.78;;;21.30;11.60;;;;;;5052276;28;20401;-73
2022/09/23 13:06:37;;;;;;;6.57;3.50;;;21.30;11.40;;;;;;5050322;28;20477;-73
2022/09/23 13:08:38;;;;;;;7.95;4.30;;;21.20;11.50;;;;;;5048452;28;20404;-72
2022/09/23 13:11:13;;;;;;;7.47;3.50;;;21.20;11.90;;;;;;5050637;28;20401;-72
2022/09/23 13:13:44;;;;;;;9.95;4.00;;;21.10;12.50;;;;;;5051655;28;20747;-73
2022/09/23 13:16:12;;;;;;;5.47;3.90;;;21.10;12.50;;;;;;5033102;28;20446;-72
2022/09/23 13:19:01;;;;;;;6.15;4.10;;;21.30;12.30;;;;;;5051274;28;20451;-73
2022/09/23 13:21:42;;;;;;;7.13;4.10;;;21.20;12.90;;;;;;5032452;28;20476;-72
2022/09/23 13:24:18;;;;;;;8.38;4.10;;;21.00;13.30;;;;;;5049959;28;20484;-74
2022/09/23 13:27:07;;;;;;;8.55;4.25;;;21.00;13.50;;;;;;5050194;28;20380;-73
2022/09/23 13:29:55;;;;;;;8.55;4.13;;;20.90;13.50;;;;;;5050328;28;20396;-73